Terminal Aerodrome Forecast
Issued by NWS

Home | Current Version | Previous Version | Text Only | Print | Product List | Glossary On
Versions: 1 2 3 4 5 6 7 8 9 10 11 12 13 14 15 16 17
000
FTUS43 KMPX 202300
TAFAXN
TAF
KAXN 202325Z 2100/2124 28006KT P6SM SKC
     FM210400 18007KT P6SM SCT200
     FM211500 18015G22KT P6SM SCT010 BKN025=

USA.gov is the U.S. government's official web portal to all federal, state and local government web resources and services.